Time;durP1;ratioP1;P1;durP2;ratioP2;P2;SDS_P1;SDS_P2;PMS_P1;PMS_P2;Temp;Humidity;BMP_temperature;BMP_pressure;BME280_temperature;BME280_humidity;BME280_pressure;Samples;Min_cycle;Max_cycle;Signal;HPM_P1;HPM_P2
2022/11/10 00:01:22;;;;;;;40.12;25.65;;;;;;;5.33;78.14;101178.18;1773961;79;21403;-67
2022/11/10 00:04:07;;;;;;;39.92;26.05;;;;;;;5.30;78.12;101184.84;1778660;79;21489;-69
2022/11/10 00:06:54;;;;;;;41.23;25.97;;;;;;;5.26;78.14;101176.74;1779327;79;21343;-69
2022/11/10 00:09:39;;;;;;;37.35;26.48;;;;;;;5.22;78.22;101184.36;1783181;80;20985;-69
2022/11/10 00:12:25;;;;;;;42.93;26.48;;;;;;;5.16;78.27;101180.23;1777437;79;21956;-69
2022/11/10 00:18:14;;;;;;;38.85;25.15;;;;;;;5.04;78.44;101174.23;1766089;79;21021;-70
2022/11/10 00:21:06;;;;;;;39.50;25.60;;;;;;;4.98;78.48;101176.64;1774931;78;21061;-69
2022/11/10 00:23:52;;;;;;;35.80;24.80;;;;;;;4.89;78.59;101173.11;1782149;79;21031;-67
2022/11/10 00:26:37;;;;;;;33.75;23.27;;;;;;;4.81;78.73;101167.35;1788814;79;21847;-68
2022/11/10 00:29:22;;;;;;;39.35;25.08;;;;;;;4.77;78.84;101167.95;1774753;79;21025;-68
2022/11/10 00:32:09;;;;;;;38.28;25.43;;;;;;;4.74;78.92;101170.70;1778981;79;21002;-68
2022/11/10 00:34:54;;;;;;;37.38;25.23;;;;;;;4.70;79.09;101165.19;1777588;78;20957;-69
2022/11/10 00:37:40;;;;;;;43.90;25.95;;;;;;;4.68;79.18;101159.64;1773519;78;21020;-67
2022/11/10 00:40:25;;;;;;;37.58;25.72;;;;;;;4.66;79.28;101162.78;1776615;79;22563;-68
2022/11/10 00:43:11;;;;;;;39.15;25.72;;;;;;;4.63;79.41;101167.66;1789071;78;20978;-69
2022/11/10 00:46:00;;;;;;;41.05;25.23;;;;;;;4.63;79.47;101164.20;1783252;78;21456;-67
2022/11/10 00:48:46;;;;;;;39.42;25.08;;;;;;;4.60;79.61;101163.42;1785656;79;20995;-69
2022/11/10 00:51:33;;;;;;;39.80;25.25;;;;;;;4.59;79.64;101163.03;1782010;78;21581;-69
2022/11/10 00:54:18;;;;;;;39.63;24.95;;;;;;;4.57;79.72;101166.64;1750152;80;22107;-68
2022/11/10 00:57:03;;;;;;;35.55;24.80;;;;;;;4.55;79.74;101161.94;1786774;78;21030;-68
2022/11/10 00:59:48;;;;;;;37.78;24.67;;;;;;;4.53;79.67;101160.66;1783321;79;21083;-70
2022/11/10 01:02:33;;;;;;;40.35;25.15;;;;;;;4.50;79.63;101167.34;1744469;79;21500;-68
2022/11/10 01:05:18;;;;;;;40.90;25.48;;;;;;;4.48;79.64;101166.56;1772295;80;21476;-69
2022/11/10 01:08:04;;;;;;;39.67;24.92;;;;;;;4.45;79.65;101169.31;1783860;80;22849;-68
2022/11/10 01:10:49;;;;;;;37.65;24.25;;;;;;;4.44;79.69;101166.30;1786164;78;20985;-68
2022/11/10 01:13:35;;;;;;;37.42;24.80;;;;;;;4.41;79.72;101169.02;1786711;79;20966;-69
2022/11/10 01:16:26;;;;;;;35.78;23.40;;;;;;;4.40;79.75;101164.71;1784214;78;21001;-68
2022/11/10 01:19:12;;;;;;;37.93;22.85;;;;;;;4.38;79.77;101162.63;1780140;78;21329;-68
2022/11/10 01:21:59;;;;;;;34.00;22.80;;;;;;;4.36;79.72;101160.53;1780153;79;21800;-67
2022/11/10 01:24:44;;;;;;;34.98;22.50;;;;;;;4.34;79.72;101158.87;1739473;82;20925;-67
2022/11/10 01:27:30;;;;;;;37.90;23.83;;;;;;;4.29;79.69;101161.23;1784175;78;20962;-69
2022/11/10 01:30:15;;;;;;;43.20;25.35;;;;;;;4.26;79.65;101168.36;1783327;78;21004;-68
2022/11/10 01:33:01;;;;;;;44.63;26.00;;;;;;;4.24;79.63;101161.01;1786188;79;21013;-68
2022/11/10 01:35:46;;;;;;;51.35;26.00;;;;;;;4.21;79.64;101166.38;1750310;81;21830;-68
2022/11/10 01:38:33;;;;;;;101.07;26.95;;;;;;;4.18;79.62;101167.36;1784004;80;20985;-68
2022/11/10 01:41:18;;;;;;;104.63;26.20;;;;;;;4.17;79.61;101162.20;1787589;78;20997;-68
2022/11/10 01:44:14;;;;;;;146.20;25.23;;;;;;;4.13;79.52;101169.29;1789933;78;21040;-68
2022/11/10 01:46:59;;;;;;;42.98;22.65;;;;;;;4.07;79.42;101160.86;1788043;78;21000;-68
2022/11/10 01:49:45;;;;;;;37.95;22.32;;;;;;;3.99;79.44;101160.70;1787888;79;22252;-68
2022/11/10 01:52:32;;;;;;;43.90;22.32;;;;;;;3.95;79.57;101158.25;1790169;78;21084;-68
2022/11/10 01:55:17;;;;;;;36.50;20.60;;;;;;;3.92;79.64;101158.38;1788579;79;21028;-69
2022/11/10 01:58:02;;;;;;;29.48;21.05;;;;;;;3.87;79.61;101159.89;1760731;80;20945;-69
2022/11/10 02:00:48;;;;;;;30.35;20.55;;;;;;;3.80;79.61;101165.41;1791083;78;21021;-68
2022/11/10 02:03:50;;;;;;;30.85;21.00;;;;;;;3.75;79.75;101166.88;1729479;80;21973;-68
2022/11/10 02:06:38;;;;;;;33.33;21.77;;;;;;;3.73;79.82;101159.55;1787610;78;21432;-69
2022/11/10 02:09:25;;;;;;;30.82;21.25;;;;;;;3.69;79.86;101160.14;1751673;80;20982;-68
2022/11/10 02:12:12;;;;;;;52.67;21.33;;;;;;;3.67;79.91;101161.12;1783779;80;20997;-68
2022/11/10 02:14:59;;;;;;;91.87;21.95;;;;;;;3.60;79.88;101165.72;1783169;78;21056;-68
2022/11/10 02:17:46;;;;;;;105.67;22.00;;;;;;;3.56;79.91;101172.40;1788440;79;21873;-68
2022/11/10 02:20:34;;;;;;;80.45;19.70;;;;;;;3.52;79.92;101166.91;1790391;78;20949;-68
2022/11/10 02:23:35;;;;;;;82.42;19.80;;;;;;;3.49;79.93;101175.72;1787835;78;20977;-68
2022/11/10 02:26:26;;;;;;;53.95;18.57;;;;;;;3.43;79.89;101170.71;1785146;78;21042;-68
2022/11/10 02:29:14;;;;;;;40.28;18.98;;;;;;;3.39;79.93;101166.06;1795385;78;20999;-68
2022/11/10 02:31:58;;;;;;;38.13;20.82;;;;;;;3.36;79.96;101165.31;1787392;78;21886;-68
2022/11/10 02:34:44;;;;;;;39.73;20.12;;;;;;;3.34;80.08;101167.98;1787252;78;20954;-68
2022/11/10 02:37:30;;;;;;;52.70;21.07;;;;;;;3.34;80.22;101168.44;1781711;78;21012;-68
2022/11/10 02:40:16;;;;;;;56.63;21.23;;;;;;;3.33;80.28;101166.73;1792676;78;21499;-67
2022/11/10 02:43:03;;;;;;;52.93;22.07;;;;;;;3.30;80.31;101162.48;1784355;78;20951;-68
2022/11/10 02:45:48;;;;;;;31.57;20.27;;;;;;;3.28;80.35;101165.62;1739597;81;21841;-68
2022/11/10 02:48:33;;;;;;;35.23;21.17;;;;;;;3.27;80.38;101172.17;1738935;81;21092;-67
2022/11/10 02:51:19;;;;;;;32.03;22.15;;;;;;;3.25;80.38;101168.77;1724477;83;21036;-67
2022/11/10 02:54:05;;;;;;;33.53;21.50;;;;;;;3.21;80.44;101172.41;1718258;81;21053;-68
2022/11/10 02:56:50;;;;;;;33.15;22.85;;;;;;;3.21;80.56;101173.72;1725359;83;21092;-68
2022/11/10 02:59:36;;;;;;;32.83;21.68;;;;;;;3.22;80.62;101175.42;1739274;82;20987;-68
2022/11/10 03:02:21;;;;;;;37.42;22.65;;;;;;;3.25;80.64;101173.99;1743230;82;20957;-68
2022/11/10 03:05:06;;;;;;;51.55;21.85;;;;;;;3.25;80.63;101173.99;1734107;82;21120;-68
2022/11/10 03:07:54;;;;;;;85.32;21.85;;;;;;;3.21;80.67;101165.43;1727968;82;21075;-68
2022/11/10 03:10:41;;;;;;;71.95;22.27;;;;;;;3.18;80.64;101168.59;1734268;82;21048;-68
2022/11/10 03:13:27;;;;;;;57.10;21.33;;;;;;;3.15;80.67;101165.19;1738602;80;22848;-69
2022/11/10 03:16:12;;;;;;;48.50;23.35;;;;;;;3.14;80.77;101171.31;1738120;80;20941;-68
2022/11/10 03:18:58;;;;;;;35.23;22.67;;;;;;;3.13;80.80;101163.55;1732241;82;21051;-68
2022/11/10 03:21:42;;;;;;;35.30;23.42;;;;;;;3.11;80.83;101157.08;1736146;82;21500;-68
2022/11/10 03:24:28;;;;;;;34.30;22.10;;;;;;;3.10;80.87;101157.99;1731478;80;21004;-68
2022/11/10 03:27:13;;;;;;;34.35;22.95;;;;;;;3.09;80.91;101157.59;1735880;81;22544;-68
2022/11/10 03:29:58;;;;;;;34.85;23.60;;;;;;;3.09;81.00;101158.91;1732066;82;21045;-67
2022/11/10 03:32:43;;;;;;;32.33;22.32;;;;;;;3.09;81.04;101162.82;1733024;82;21004;-67
2022/11/10 03:35:28;;;;;;;35.88;22.25;;;;;;;3.08;81.05;101154.56;1731314;80;20997;-70
2022/11/10 03:38:13;;;;;;;35.80;23.60;;;;;;;3.06;81.10;101153.77;1736313;80;21477;-68
2022/11/10 03:40:58;;;;;;;32.58;22.50;;;;;;;3.06;81.14;101158.98;1718497;80;22603;-67
2022/11/10 03:43:44;;;;;;;37.23;23.42;;;;;;;3.01;81.17;101153.55;1739683;80;20916;-68
2022/11/10 03:46:29;;;;;;;37.48;24.15;;;;;;;2.97;81.18;101160.62;1742632;81;21079;-67
2022/11/10 03:49:14;;;;;;;37.03;24.35;;;;;;;2.94;81.26;101159.44;1742672;81;21039;-68
2022/11/10 03:51:59;;;;;;;38.42;26.42;;;;;;;2.92;81.30;101162.55;1742182;81;20996;-67
2022/11/10 03:54:44;;;;;;;37.58;24.85;;;;;;;2.91;81.40;101154.79;1742243;81;22595;-67
2022/11/10 03:57:29;;;;;;;42.00;26.93;;;;;;;2.91;81.40;101152.18;1739972;81;21056;-67
2022/11/10 04:00:16;;;;;;;39.35;27.27;;;;;;;2.88;81.42;101150.51;1739830;81;21093;-68
2022/11/10 04:03:01;;;;;;;39.98;25.52;;;;;;;2.81;81.52;101151.20;1748474;80;21068;-67
2022/11/10 04:09:00;;;;;;;36.85;24.20;;;;;;;2.75;81.57;101150.09;1728964;81;21951;-67
2022/11/10 04:17:52;;;;;;;38.73;23.77;;;;;;;2.67;81.63;101156.02;1739334;81;21020;-68
2022/11/10 04:20:38;;;;;;;37.13;23.32;;;;;;;2.64;81.64;101156.13;1741447;82;21012;-68
2022/11/10 04:23:27;;;;;;;35.13;22.77;;;;;;;2.63;81.69;101159.66;1728472;82;21779;-68
2022/11/10 04:26:28;;;;;;;36.83;23.83;;;;;;;2.62;81.72;101159.71;1738249;80;20948;-67
2022/11/10 04:29:18;;;;;;;40.92;25.85;;;;;;;2.62;81.72;101165.77;1737498;82;20957;-67
2022/11/10 04:32:03;;;;;;;39.63;26.35;;;;;;;2.59;81.76;101160.64;1736375;80;20989;-67
2022/11/10 04:34:50;;;;;;;40.20;25.50;;;;;;;2.58;81.79;101159.79;1738825;80;21072;-68
2022/11/10 04:37:35;;;;;;;47.38;30.08;;;;;;;2.58;81.83;101160.24;1730749;80;21846;-69
2022/11/10 04:40:20;;;;;;;52.43;30.70;;;;;;;2.58;81.88;101160.24;1721309;82;20952;-68
2022/11/10 04:43:05;;;;;;;52.40;31.35;;;;;;;2.58;81.88;101162.40;1741893;80;21017;-67
2022/11/10 04:45:50;;;;;;;60.17;32.45;;;;;;;2.59;81.92;101168.47;1741097;80;21021;-67
2022/11/10 04:48:37;;;;;;;63.83;36.17;;;;;;;2.63;81.79;101172.69;1737305;82;21015;-67
2022/11/10 04:51:26;;;;;;;81.57;32.03;;;;;;;2.64;81.77;101178.30;1787863;79;21846;-67
2022/11/10 04:54:11;;;;;;;86.47;27.58;;;;;;;2.63;81.72;101178.36;1783621;79;21001;-67
2022/11/10 04:56:57;;;;;;;114.35;26.48;;;;;;;2.60;81.76;101175.38;1784219;79;20993;-67
2022/11/10 04:59:43;;;;;;;124.35;26.48;;;;;;;2.56;81.80;101177.70;1783639;79;21447;-68
2022/11/10 05:02:29;;;;;;;90.97;23.80;;;;;;;2.54;81.88;101190.80;1784875;79;20997;-67
2022/11/10 05:05:14;;;;;;;166.43;26.35;;;;;;;2.53;81.94;101191.70;1739999;80;21758;-67
2022/11/10 05:08:00;;;;;;;122.70;26.55;;;;;;;2.50;81.98;101190.48;1713246;83;20995;-67
2022/11/10 05:10:46;;;;;;;72.95;23.20;;;;;;;2.49;82.05;101196.60;1742244;82;21066;-68
2022/11/10 05:13:31;;;;;;;99.83;26.02;;;;;;;2.50;82.05;101198.30;1723875;80;20981;-68
2022/11/10 05:16:16;;;;;;;124.58;26.05;;;;;;;2.50;82.08;101207.88;1745958;82;21585;-68
2022/11/10 05:19:03;;;;;;;92.42;26.00;;;;;;;2.51;82.16;101205.67;1739659;80;21916;-68
2022/11/10 05:21:48;;;;;;;84.95;27.13;;;;;;;2.53;82.28;101207.80;1731214;80;20920;-68
2022/11/10 05:24:34;;;;;;;69.55;28.27;;;;;;;2.55;82.40;101211.20;1723747;82;21047;-68
2022/11/10 05:27:19;;;;;;;38.13;25.43;;;;;;;2.60;82.49;101213.20;1744450;80;21442;-68
2022/11/10 05:30:06;;;;;;;52.00;29.18;;;;;;;2.66;82.67;101206.48;1718161;82;21018;-67
2022/11/10 05:32:51;;;;;;;43.68;29.05;;;;;;;2.73;82.86;101209.75;1743440;82;21865;-69
2022/11/10 05:35:37;;;;;;;43.63;28.02;;;;;;;2.82;83.15;101209.44;1741858;82;20941;-68
2022/11/10 05:38:21;;;;;;;53.48;30.02;;;;;;;2.94;83.34;101210.77;1740107;80;20984;-67
2022/11/10 05:41:07;;;;;;;58.38;32.55;;;;;;;3.04;83.56;101214.31;1739617;82;21008;-68
2022/11/10 05:43:53;;;;;;;63.20;33.10;;;;;;;3.14;83.76;101216.15;1717103;80;21008;-67
2022/11/10 05:46:37;;;;;;;54.98;31.57;;;;;;;3.25;83.98;101216.61;1697316;83;21953;-67
2022/11/10 05:49:22;;;;;;;55.88;32.10;;;;;;;3.37;84.18;101221.39;1693559;84;20961;-69
2022/11/10 05:52:07;;;;;;;58.13;31.65;;;;;;;3.48;84.39;101222.34;1695142;84;21054;-69
2022/11/10 05:54:54;;;;;;;59.35;33.05;;;;;;;3.60;84.62;101221.88;1684047;83;20958;-69
2022/11/10 05:57:44;;;;;;;59.75;33.78;;;;;;;3.70;84.83;101224.55;1683008;85;21082;-69
2022/11/10 06:00:30;;;;;;;56.70;33.20;;;;;;;3.81;84.99;101226.75;1686612;83;21771;-67
2022/11/10 06:03:17;;;;;;;51.92;31.52;;;;;;;3.90;85.15;101219.02;1683614;83;21475;-68
2022/11/10 06:06:02;;;;;;;60.83;32.28;;;;;;;3.99;85.29;101230.42;1683334;83;21076;-70
2022/11/10 06:08:48;;;;;;;56.20;32.73;;;;;;;4.05;85.36;101235.86;1680245;85;20986;-68
2022/11/10 06:11:33;;;;;;;53.78;32.53;;;;;;;4.11;85.46;101232.56;1685302;83;21040;-68
2022/11/10 06:14:20;;;;;;;53.60;31.50;;;;;;;4.16;85.58;101233.25;1676200;83;20915;-67
2022/11/10 06:17:06;;;;;;;55.98;32.00;;;;;;;4.21;85.66;101235.20;1683432;83;21081;-67
2022/11/10 06:19:51;;;;;;;55.95;30.05;;;;;;;4.25;85.73;101234.66;1683935;84;21450;-68
2022/11/10 06:22:36;;;;;;;59.70;33.70;;;;;;;4.29;85.86;101232.30;1684816;83;21069;-67
2022/11/10 06:25:21;;;;;;;55.23;31.70;;;;;;;4.31;85.99;101235.24;1687287;83;20946;-69
2022/11/10 06:28:07;;;;;;;53.65;31.07;;;;;;;4.36;86.06;101235.08;1681092;83;21903;-68
2022/11/10 06:30:57;;;;;;;52.95;30.37;;;;;;;4.39;86.15;101240.17;1675166;83;20954;-69
2022/11/10 06:33:42;;;;;;;55.28;31.73;;;;;;;4.40;86.24;101241.88;1685614;83;21420;-69
2022/11/10 06:36:28;;;;;;;52.40;30.48;;;;;;;4.40;86.28;101241.88;1684650;83;21131;-70
2022/11/10 06:39:13;;;;;;;59.20;33.00;;;;;;;4.42;86.36;101242.66;1685277;83;21041;-69
2022/11/10 06:42:23;;;;;;;59.95;33.92;;;;;;;4.44;86.47;101235.62;1686152;84;22012;-68
2022/11/10 06:45:15;;;;;;;57.25;31.62;;;;;;;4.48;86.51;101241.11;1706343;82;21535;-70
2022/11/10 06:48:10;;;;;;;53.80;30.85;;;;;;;4.54;86.63;101240.03;1758000;81;21543;-69
2022/11/10 06:51:01;;;;;;;53.78;31.68;;;;;;;4.59;86.71;101241.98;1751843;80;21045;-70
2022/11/10 06:53:46;;;;;;;62.05;34.05;;;;;;;4.62;86.74;101243.16;1762901;80;21041;-69
2022/11/10 06:56:32;;;;;;;56.68;33.50;;;;;;;4.64;86.77;101240.50;1747972;80;21842;-70
2022/11/10 06:59:16;;;;;;;61.73;33.73;;;;;;;4.67;86.83;101242.53;1769217;79;21482;-70
2022/11/10 07:02:01;;;;;;;62.13;34.98;;;;;;;4.69;86.88;101238.08;1748489;80;20951;-68
2022/11/10 07:04:49;;;;;;;58.92;34.27;;;;;;;4.73;86.93;101233.13;1759394;80;21042;-68
2022/11/10 07:07:35;;;;;;;55.05;34.20;;;;;;;4.78;86.99;101236.39;1757468;80;21092;-70
2022/11/10 07:10:20;;;;;;;57.50;35.00;;;;;;;4.86;87.08;101242.16;1754282;80;21837;-69
2022/11/10 07:13:06;;;;;;;60.28;35.10;;;;;;;4.89;87.04;101230.70;1749717;80;21565;-68
2022/11/10 07:15:51;;;;;;;60.20;34.98;;;;;;;4.90;87.03;101233.70;1739650;80;21088;-69
2022/11/10 07:18:37;;;;;;;53.15;32.28;;;;;;;4.94;87.11;101231.38;1760125;80;21129;-69
2022/11/10 07:21:22;;;;;;;50.83;32.50;;;;;;;5.00;87.18;101229.78;1757047;80;21503;-68
2022/11/10 07:24:08;;;;;;;54.08;32.48;;;;;;;5.05;87.19;101231.77;1758069;80;21807;-68
2022/11/10 07:26:53;;;;;;;50.67;32.38;;;;;;;5.13;87.27;101236.22;1754858;80;21008;-69
2022/11/10 07:29:38;;;;;;;46.48;30.92;;;;;;;5.18;87.25;101234.69;1766797;80;21039;-70
2022/11/10 07:32:25;;;;;;;51.05;31.20;;;;;;;5.22;87.18;101231.04;1757212;80;20971;-68
2022/11/10 07:35:12;;;;;;;52.13;33.08;;;;;;;5.28;87.22;101237.30;1759516;80;21049;-67
2022/11/10 07:38:01;;;;;;;51.23;33.30;;;;;;;5.35;87.23;101237.44;1758287;80;21961;-69
2022/11/10 07:40:48;;;;;;;52.33;33.60;;;;;;;5.40;87.16;101242.45;1742520;81;21009;-69
2022/11/10 07:43:36;;;;;;;52.20;34.58;;;;;;;5.41;87.08;101241.56;1753406;80;21080;-67
2022/11/10 07:46:24;;;;;;;52.58;33.13;;;;;;;5.46;87.11;101247.44;1707800;82;21014;-69
2022/11/10 07:49:09;;;;;;;50.98;30.80;;;;;;;5.53;87.12;101255.42;1721914;81;21063;-74
2022/11/10 07:51:54;;;;;;;54.33;32.33;;;;;;;5.59;87.08;101261.69;1745666;81;21842;-69
2022/11/10 07:54:39;;;;;;;52.25;31.02;;;;;;;5.68;87.17;101259.97;1695149;82;21046;-69
2022/11/10 07:57:24;;;;;;;49.05;31.12;;;;;;;5.82;87.28;101260.67;1729085;81;21047;-68
2022/11/10 08:00:11;;;;;;;47.70;30.80;;;;;;;5.91;87.17;101262.91;1712623;82;22276;-69
2022/11/10 08:03:04;;;;;;;42.30;28.15;;;;;;;6.01;87.10;101269.89;1740938;80;21454;-68
2022/11/10 08:05:49;;;;;;;46.98;29.12;;;;;;;6.08;86.98;101266.07;1738178;82;22034;-69
2022/11/10 08:08:43;;;;;;;50.60;31.57;;;;;;;6.09;86.55;101269.08;1739434;80;21058;-69
2022/11/10 08:12:23;;;;;;;50.05;32.08;;;;;;;6.10;86.34;101267.30;1714091;82;20959;-68
2022/11/10 08:15:16;;;;;;;45.92;30.92;;;;;;;6.11;86.10;101267.69;1736739;80;21527;-69
2022/11/10 08:18:18;;;;;;;45.52;30.52;;;;;;;6.16;85.95;101272.25;1737086;80;21081;-68
2022/11/10 08:21:05;;;;;;;51.50;31.12;;;;;;;6.16;85.75;101274.41;1733456;82;21596;-68
2022/11/10 08:23:50;;;;;;;44.75;29.67;;;;;;;6.19;85.62;101274.28;1737354;80;21095;-68
2022/11/10 08:26:35;;;;;;;47.73;29.52;;;;;;;6.24;85.54;101272.74;1735269;82;21028;-68
2022/11/10 08:29:25;;;;;;;49.03;30.60;;;;;;;6.29;85.42;101269.45;1738342;80;21033;-70
2022/11/10 08:32:15;;;;;;;46.02;31.12;;;;;;;6.33;85.21;101271.46;1736640;82;21158;-68
2022/11/10 08:35:00;;;;;;;47.65;29.48;;;;;;;6.35;84.95;101267.83;1736143;80;21862;-70
2022/11/10 08:37:46;;;;;;;47.43;29.65;;;;;;;6.36;84.62;101260.34;1736039;80;21065;-69
2022/11/10 08:40:40;;;;;;;46.05;29.80;;;;;;;6.40;84.48;101261.07;1739400;80;21067;-68
2022/11/10 08:43:27;;;;;;;44.93;28.73;;;;;;;6.44;84.29;101258.67;1736274;81;21063;-69
2022/11/10 08:46:14;;;;;;;43.65;27.80;;;;;;;6.48;84.08;101260.25;1726471;82;21022;-69
2022/11/10 08:48:59;;;;;;;38.40;26.65;;;;;;;6.51;83.83;101260.94;1740517;82;21862;-69
2022/11/10 08:51:45;;;;;;;39.60;27.40;;;;;;;6.52;83.26;101260.47;1736498;82;21140;-67
2022/11/10 08:54:38;;;;;;;42.75;27.65;;;;;;;6.54;83.00;101254.22;1735787;82;21023;-71
2022/11/10 08:57:29;;;;;;;39.90;26.33;;;;;;;6.56;82.75;101256.77;1733810;82;21446;-76
2022/11/10 09:00:16;;;;;;;45.08;28.20;;;;;;;6.60;82.50;101266.20;1733833;82;21125;-69
2022/11/10 09:03:14;;;;;;;43.90;28.00;;;;;;;6.60;82.16;101263.58;1732966;82;22548;-68
2022/11/10 09:05:59;;;;;;;41.02;26.77;;;;;;;6.65;82.08;101268.13;1723306;82;21031;-67
2022/11/10 09:08:45;;;;;;;46.73;28.27;;;;;;;6.75;81.99;101266.75;1729407;82;21036;-68
2022/11/10 09:11:30;;;;;;;41.00;28.17;;;;;;;6.81;81.87;101265.14;1739716;82;21040;-67
2022/11/10 09:14:17;;;;;;;39.27;27.02;;;;;;;6.90;81.68;101262.53;1725169;81;21012;-67
2022/11/10 09:17:02;;;;;;;40.08;27.52;;;;;;;6.97;81.47;101261.30;1740408;81;23714;-67
2022/11/10 09:19:47;;;;;;;38.98;26.77;;;;;;;7.02;81.27;101254.02;1708074;82;21028;-68
2022/11/10 09:22:34;;;;;;;38.28;27.13;;;;;;;7.11;81.15;101250.93;1738302;81;21099;-67
2022/11/10 09:25:20;;;;;;;41.30;25.68;;;;;;;7.18;80.81;101250.16;1715496;82;21017;-67
2022/11/10 09:28:06;;;;;;;39.05;26.45;;;;;;;7.24;80.64;101251.61;1712624;82;21004;-66
2022/11/10 09:30:51;;;;;;;37.23;25.65;;;;;;;7.30;80.41;101249.52;1696653;82;22565;-67
2022/11/10 09:33:37;;;;;;;33.92;24.32;;;;;;;7.36;80.03;101261.52;1713505;82;21050;-67
2022/11/10 09:36:22;;;;;;;35.50;25.57;;;;;;;7.36;79.76;101247.06;1713838;82;21054;-71
2022/11/10 09:39:08;;;;;;;38.65;25.32;;;;;;;7.40;79.57;101244.17;1713937;83;21480;-68
2022/11/10 09:41:53;;;;;;;35.10;25.68;;;;;;;7.44;79.24;101233.05;1706131;82;21056;-69
2022/11/10 09:44:55;;;;;;;34.58;25.08;;;;;;;7.49;79.06;101235.42;1708360;83;22029;-71
2022/11/10 09:47:49;;;;;;;37.98;25.95;;;;;;;7.56;78.89;101227.61;1741018;80;20945;-69
2022/11/10 09:50:42;;;;;;;36.25;24.92;;;;;;;7.61;78.62;101238.70;1738847;80;21068;-68
2022/11/10 09:53:33;;;;;;;35.60;23.55;;;;;;;7.65;78.12;101237.64;1735983;81;21040;-69
2022/11/10 09:56:26;;;;;;;36.77;25.25;;;;;;;7.69;77.90;101235.21;1740566;80;21586;-68
2022/11/10 09:59:18;;;;;;;33.95;23.12;;;;;;;7.73;77.48;101230.19;1737701;80;21795;-68
2022/11/10 10:02:28;;;;;;;34.65;23.83;;;;;;;7.80;77.14;101229.38;1737229;80;21503;-68
2022/11/10 10:05:34;;;;;;;31.42;23.42;;;;;;;7.83;76.83;101223.97;1745968;80;21052;-68
2022/11/10 10:08:57;;;;;;;34.13;23.98;;;;;;;7.87;76.48;101225.02;1731227;80;21474;-69
2022/11/10 10:12:20;;;;;;;38.38;23.83;;;;;;;7.93;76.18;101226.48;1734876;80;21028;-71
2022/11/10 10:15:47;;;;;;;32.67;23.00;;;;;;;7.98;76.13;101225.27;1746439;80;21959;-72
2022/11/10 10:18:56;;;;;;;33.30;22.85;;;;;;;8.07;75.86;101225.70;1745815;82;21036;-71
2022/11/10 10:22:22;;;;;;;31.77;22.90;;;;;;;8.13;75.47;101221.42;1738609;80;21012;-68
2022/11/10 10:25:12;;;;;;;29.27;21.80;;;;;;;8.17;75.29;101217.20;1739464;82;21038;-69
2022/11/10 10:28:06;;;;;;;33.78;23.22;;;;;;;8.22;75.06;101211.70;1739303;81;21008;-68
2022/11/10 10:30:51;;;;;;;25.43;16.90;;;;;;;8.25;74.86;101206.26;1736986;80;21955;-68
2022/11/10 10:33:35;;;;;;;32.85;23.40;;;;;;;8.31;75.00;101209.41;1740914;81;21085;-70
2022/11/10 10:36:26;;;;;;;36.80;24.23;;;;;;;8.40;74.83;101213.80;1741442;80;21517;-69
2022/11/10 10:39:25;;;;;;;35.92;24.02;;;;;;;8.43;74.65;101209.20;1735378;80;21020;-68
2022/11/10 10:42:32;;;;;;;34.10;23.18;;;;;;;8.49;74.61;101202.72;1690160;82;21478;-68
2022/11/10 10:45:23;;;;;;;32.75;22.75;;;;;;;8.57;74.49;101207.08;1687465;84;22008;-69
2022/11/10 10:48:27;;;;;;;31.95;21.82;;;;;;;8.61;74.18;101204.66;1686623;83;22083;-68
2022/11/10 10:51:28;;;;;;;39.18;25.68;;;;;;;8.67;74.14;101200.81;1704877;84;21055;-69
2022/11/10 10:54:29;;;;;;;32.45;22.85;;;;;;;8.74;74.11;101198.20;1647505;85;20992;-69
2022/11/10 10:57:27;;;;;;;32.05;21.97;;;;;;;8.85;74.11;101199.73;1695149;84;22419;-69
2022/11/10 11:00:21;;;;;;;35.75;19.82;;;;;;;8.93;73.88;101200.13;1716968;82;21861;-71
2022/11/10 11:03:27;;;;;;;30.92;21.93;;;;;;;9.01;73.59;101195.73;1703324;82;21084;-70
2022/11/10 11:06:18;;;;;;;28.90;20.52;;;;;;;9.06;73.20;101195.81;1699861;82;21528;-69
2022/11/10 11:09:18;;;;;;;31.17;21.77;;;;;;;9.10;72.91;101194.70;1700720;82;21028;-71
2022/11/10 11:12:19;;;;;;;27.75;19.95;;;;;;;9.14;72.76;101197.52;1705761;82;21063;-71
2022/11/10 11:15:27;;;;;;;28.90;21.62;;;;;;;9.23;72.79;101200.08;1707305;82;21834;-74
2022/11/10 11:18:14;;;;;;;28.00;20.15;;;;;;;9.35;72.79;101195.37;1698300;82;21044;-79
2022/11/10 11:21:34;;;;;;;26.65;19.60;;;;;;;9.49;72.68;101188.42;1699408;82;21570;-76
2022/11/10 11:24:40;;;;;;;27.87;19.57;;;;;;;9.60;72.49;101196.51;1707758;82;21415;-73
2022/11/10 11:27:51;;;;;;;27.82;20.02;;;;;;;9.70;72.01;101191.88;1701121;82;21156;-74
2022/11/10 11:31:13;;;;;;;29.63;19.23;;;;;;;9.77;71.70;101188.87;1704062;84;21913;-73
2022/11/10 11:34:18;;;;;;;27.40;19.20;;;;;;;9.87;71.34;101186.02;1703861;83;21139;-73
2022/11/10 11:37:27;;;;;;;25.45;18.32;;;;;;;9.98;71.03;101182.22;1691575;82;21032;-74
2022/11/10 11:40:40;;;;;;;23.90;17.75;;;;;;;10.16;70.94;101182.83;1708934;82;21520;-73
2022/11/10 11:44:04;;;;;;;24.40;17.90;;;;;;;10.39;70.58;101181.35;1711059;81;21049;-72
2022/11/10 11:47:28;;;;;;;25.60;18.77;;;;;;;10.58;69.69;101184.00;1706261;82;21998;-73
2022/11/10 11:50:52;;;;;;;24.80;18.95;;;;;;;10.76;69.13;101177.96;1703312;84;21027;-72
2022/11/10 11:54:03;;;;;;;22.42;17.23;;;;;;;11.06;68.92;101176.83;1703547;82;21021;-72
2022/11/10 11:56:49;;;;;;;23.57;17.10;;;;;;;11.49;68.39;101172.53;1704723;82;20993;-73
2022/11/10 12:00:09;;;;;;;30.32;18.05;;;;;;;11.86;67.09;101174.26;1704541;82;21036;-72
2022/11/10 12:03:11;;;;;;;22.75;17.07;;;;;;;12.03;66.07;101170.40;1712383;82;21953;-72
2022/11/10 12:06:11;;;;;;;22.67;16.50;;;;;;;12.24;65.66;101170.62;1696322;82;21041;-73
2022/11/10 12:09:28;;;;;;;22.05;16.05;;;;;;;12.48;64.78;101165.33;1700451;82;21505;-70
2022/11/10 12:12:38;;;;;;;23.87;16.05;;;;;;;12.63;63.74;101157.53;1699941;82;21038;-70
2022/11/10 12:15:32;;;;;;;19.42;15.93;;;;;;;12.69;62.85;101157.08;1701657;82;20982;-70
2022/11/10 12:18:38;;;;;;;21.82;15.35;;;;;;;12.78;62.82;101155.05;1711018;82;21012;-70
2022/11/10 12:21:47;;;;;;;22.52;14.63;;;;;;;12.88;61.67;101150.73;1698059;82;21758;-71
2022/11/10 12:24:59;;;;;;;17.92;14.13;;;;;;;12.92;61.07;101151.33;1704900;82;21385;-75
2022/11/10 12:27:49;;;;;;;22.80;14.90;;;;;;;12.97;60.75;101151.00;1706024;82;21087;-70
2022/11/10 12:30:35;;;;;;;22.35;15.70;;;;;;;12.98;60.22;101154.01;1708410;81;21087;-72
2022/11/10 12:33:31;;;;;;;18.23;14.23;;;;;;;13.04;60.20;101151.73;1704026;83;21823;-71
2022/11/10 12:36:18;;;;;;;18.87;14.73;;;;;;;13.10;59.37;101147.75;1705221;82;21134;-70
2022/11/10 12:39:22;;;;;;;20.20;14.63;;;;;;;13.11;59.37;101147.62;1669356;84;21116;-70
2022/11/10 12:42:19;;;;;;;17.62;13.98;;;;;;;13.14;59.48;101146.56;1666895;84;21080;-69
2022/11/10 12:45:15;;;;;;;18.00;13.75;;;;;;;13.21;59.33;101150.92;1686939;83;21044;-69
2022/11/10 12:48:00;;;;;;;22.13;14.15;;;;;;;13.22;58.59;101150.83;1699011;82;22350;-72
2022/11/10 12:51:23;;;;;;;19.77;14.33;;;;;;;13.15;58.41;101152.23;1684051;82;20961;-72
2022/11/10 12:54:11;;;;;;;17.98;13.48;;;;;;;13.09;58.30;101149.56;1712505;82;21059;-72
2022/11/10 12:57:10;;;;;;;22.27;16.52;;;;;;;13.01;58.48;101144.48;1670025;84;21056;-70
2022/11/10 13:00:07;;;;;;;18.40;13.85;;;;;;;13.02;58.74;101147.01;1696427;84;21090;-71
2022/11/10 13:02:54;;;;;;;17.50;13.10;;;;;;;13.02;58.52;101144.36;1697170;84;22516;-68
2022/11/10 13:05:42;;;;;;;17.90;12.73;;;;;;;12.99;58.53;101148.58;1682938;84;20961;-71
2022/11/10 13:08:31;;;;;;;18.02;13.55;;;;;;;13.03;58.63;101151.38;1624175;87;21026;-69
2022/11/10 13:11:34;;;;;;;19.32;13.85;;;;;;;13.03;58.05;101154.52;1701277;82;21001;-69
2022/11/10 13:14:24;;;;;;;18.05;13.00;;;;;;;12.96;58.23;101151.96;1690679;82;21421;-69
2022/11/10 13:17:29;;;;;;;19.32;13.93;;;;;;;12.87;58.27;101149.05;1666137;84;24006;-68